This is the latest recevied weather packets stored in our database for station/object KD5GAT-51. If no packets are shown the sender has not sent any weather packets the latest 1 day(s).
| Time | Temp. | Humidity | Pressure | Rain* | Wind** | Luminosity | Snow |
|---|---|---|---|---|---|---|---|
| 1778096443 | 35.56° C | 51% | 1011.9 hPa | - | - | - | - |
| 1778095543 | 33.89° C | 57% | 1011.9 hPa | - | - | - | - |
| 1778094643 | 33.89° C | 59% | 1012.1 hPa | - | - | - | - |
| 1778091042 | 31.67° C | 69% | 1013 hPa | - | - | - | - |
| 1778090142 | 32.78° C | 68% | 1013 hPa | - | - | - | - |
| 1778085641 | 29.44° C | 87% | 1013.2 hPa | - | - | - | - |
| 1778084741 | 29.44° C | 90% | 1013.2 hPa | - | - | - | - |
| 1778080240 | 26.11° C | 100% | 1012.4 hPa | - | - | - | - |
| 1778079340 | 26.11° C | 100% | 1012.3 hPa | - | - | - | - |
| 1778078440 | 26.11° C | 100% | 1012.2 hPa | - | - | - | - |
| 1778073939 | 24.44° C | 100% | 1011 hPa | - | - | - | - |
| 1778069438 | 23.33° C | 100% | 1010.7 hPa | - | - | - | - |
| 1778068538 | 23.33° C | 100% | 1010.6 hPa | - | - | - | - |
| 1778064936 | 23.33° C | 100% | 1010.4 hPa | - | - | - | - |
| 1778064036 | 23.33° C | 100% | 1010.3 hPa | - | - | - | - |
| 1778063136 | 23.89° C | 100% | 1010.3 hPa | - | - | - | - |
| 1778062236 | 23.89° C | 100% | 1010.3 hPa | - | - | - | - |
| 1778059543 | 23.89° C | 100% | 1010.2 hPa | - | - | - | - |
| 1778058643 | 24.44° C | 100% | 1010.2 hPa | - | - | - | - |
| 1778057743 | 24.44° C | 100% | 1010.3 hPa | - | - | - | - |
| 1778055942 | 24.44° C | 100% | 1010.6 hPa | - | - | - | - |
| 1778055042 | 24.44° C | 100% | 1010.5 hPa | - | - | - | - |
| 1778054142 | 24.44° C | 100% | 1010.4 hPa | - | - | - | - |
| 1778053242 | 24.44° C | 100% | 1010.5 hPa | - | - | - | - |
| 1778052342 | 24.44° C | 100% | 1010.6 hPa | - | - | - | - |
* Rain since midnight (hover to see other rain measurements)
** Current wind speed in m/s (hover to see current wind gust speed)